createdAt,value
2023-02-22T00:01:10.137Z,23.90
2023-02-22T00:03:40.093Z,23.47
2023-02-22T00:06:11.135Z,23.30
2023-02-22T00:08:40.388Z,27.52
2023-02-22T00:11:10.258Z,28.02
2023-02-22T00:13:40.329Z,28.87
2023-02-22T00:16:11.247Z,27.35
2023-02-22T00:18:40.553Z,26.62
2023-02-22T00:21:10.813Z,26.97
2023-02-22T00:23:44.591Z,27.70
2023-02-22T00:26:18.352Z,27.32
2023-02-22T00:28:50.605Z,26.68
2023-02-22T00:31:20.796Z,28.32
2023-02-22T00:33:51.076Z,27.02
2023-02-22T00:36:20.623Z,27.00
2023-02-22T00:38:49.892Z,27.15
2023-02-22T00:41:19.570Z,27.30
2023-02-22T00:43:50.753Z,27.23
2023-02-22T00:46:21.166Z,26.97
2023-02-22T00:48:50.427Z,27.73
2023-02-22T00:51:20.152Z,25.97
2023-02-22T00:53:51.203Z,28.07
2023-02-22T00:56:20.658Z,26.82
2023-02-22T00:58:49.928Z,26.62
2023-02-22T01:01:20.727Z,29.40
2023-02-22T01:03:50.406Z,29.10
2023-02-22T01:06:19.998Z,31.62
2023-02-22T01:08:50.152Z,29.00
2023-02-22T01:11:19.542Z,29.50
2023-02-22T01:13:52.157Z,29.18
2023-02-22T01:16:23.262Z,29.35
2023-02-22T01:18:53.428Z,27.15
2023-02-22T01:21:23.050Z,27.98
2023-02-22T01:23:52.247Z,26.73
2023-02-22T01:26:21.796Z,26.37
2023-02-22T01:28:51.035Z,26.05
2023-02-22T01:31:20.871Z,28.55
2023-02-22T01:33:52.441Z,26.23
2023-02-22T01:36:22.855Z,27.22
2023-02-22T01:38:52.096Z,29.00
2023-02-22T01:41:22.597Z,28.15
2023-02-22T01:43:51.806Z,30.12
2023-02-22T01:46:24.776Z,29.75
2023-02-22T01:49:03.443Z,30.15
2023-02-22T01:51:36.959Z,29.02
2023-02-22T01:54:18.275Z,27.55
2023-02-22T01:56:54.056Z,29.35
2023-02-22T01:59:23.631Z,28.57
2023-02-22T02:01:53.133Z,29.52
2023-02-22T02:04:25.804Z,30.05
2023-02-22T02:06:59.533Z,30.70
2023-02-22T02:09:53.258Z,30.40
2023-02-22T02:12:23.599Z,30.68
2023-02-22T02:14:53.212Z,31.12
2023-02-22T02:17:23.983Z,31.48
2023-02-22T02:20:02.235Z,26.93
2023-02-22T02:22:48.797Z,26.97
2023-02-22T02:25:40.673Z,28.90
2023-02-22T02:28:24.910Z,27.40
2023-02-22T02:31:26.131Z,27.32
2023-02-22T02:34:04.581Z,29.30
2023-02-22T02:36:49.171Z,28.38
2023-02-22T02:39:23.318Z,28.75
2023-02-22T02:41:53.694Z,29.02
2023-02-22T02:44:26.296Z,28.07
2023-02-22T02:46:57.856Z,27.35
2023-02-22T02:49:39.874Z,27.20
2023-02-22T02:52:12.665Z,27.75
2023-02-22T02:54:42.199Z,28.77
2023-02-22T02:57:11.691Z,27.77
2023-02-22T02:59:40.951Z,28.47
2023-02-22T03:02:39.697Z,29.12
2023-02-22T03:05:28.534Z,27.05
2023-02-22T03:08:07.706Z,29.35
2023-02-22T03:10:40.144Z,26.57
2023-02-22T03:13:19.230Z,26.57
2023-02-22T03:15:55.061Z,26.93
2023-02-22T03:18:30.164Z,24.57
2023-02-22T03:21:23.736Z,26.70
2023-02-22T03:23:56.667Z,25.00
2023-02-22T03:26:31.994Z,27.27
2023-02-22T03:29:04.720Z,26.97
2023-02-22T03:31:40.047Z,27.60
2023-02-22T03:34:18.391Z,26.35
2023-02-22T03:36:57.348Z,26.57
2023-02-22T03:39:29.758Z,27.48
2023-02-22T03:42:01.763Z,27.40
2023-02-22T03:44:32.788Z,26.73
2023-02-22T03:47:04.894Z,24.50
2023-02-22T03:49:40.631Z,24.72
2023-02-22T03:52:12.237Z,24.77
2023-02-22T03:54:42.332Z,25.30
2023-02-22T03:57:18.725Z,24.80
2023-02-22T03:59:49.703Z,24.55
2023-02-22T04:02:19.106Z,25.17
2023-02-22T04:04:49.328Z,24.77
2023-02-22T04:07:19.830Z,25.75
2023-02-22T04:09:50.470Z,22.70
2023-02-22T04:12:20.585Z,22.70
2023-02-22T04:14:51.890Z,23.18
2023-02-22T04:17:21.275Z,24.92
2023-02-22T04:19:51.500Z,25.60
2023-02-22T04:22:21.125Z,26.02
2023-02-22T04:24:51.151Z,25.55
2023-02-22T04:27:20.751Z,27.20
2023-02-22T04:29:50.208Z,27.93
2023-02-22T04:32:19.668Z,27.07
2023-02-22T04:34:49.071Z,28.98
2023-02-22T04:37:18.501Z,28.62
2023-02-22T04:39:48.168Z,26.73
2023-02-22T04:42:19.595Z,28.45
2023-02-22T04:44:49.122Z,27.60
2023-02-22T04:47:18.431Z,26.77
2023-02-22T04:49:48.222Z,26.33
2023-02-22T04:52:17.577Z,26.87
2023-02-22T04:54:47.094Z,27.50
2023-02-22T04:57:18.078Z,26.75
2023-02-22T04:59:47.459Z,24.57
2023-02-22T05:02:16.829Z,24.77
2023-02-22T05:04:46.748Z,24.12
2023-02-22T05:07:16.077Z,24.10
2023-02-22T05:09:45.654Z,25.00
2023-02-22T05:12:15.216Z,23.60
2023-02-22T05:14:44.748Z,23.45
2023-02-22T05:17:14.311Z,25.43
2023-02-22T05:19:43.656Z,26.00
2023-02-22T05:22:12.912Z,24.80
2023-02-22T05:24:42.490Z,25.52
2023-02-22T05:27:11.952Z,25.10
2023-02-22T05:29:41.800Z,24.20
2023-02-22T05:32:12.390Z,24.50
2023-02-22T05:34:42.119Z,23.73
2023-02-22T05:37:11.335Z,24.23
2023-02-22T05:39:40.856Z,21.95
2023-02-22T05:42:10.178Z,25.32
2023-02-22T05:44:39.644Z,22.40
2023-02-22T05:47:08.863Z,23.87
2023-02-22T05:49:38.330Z,26.00
2023-02-22T05:52:07.624Z,24.57
2023-02-22T05:54:36.898Z,24.77
2023-02-22T05:57:06.589Z,23.75
2023-02-22T05:59:36.394Z,24.92
2023-02-22T06:02:05.777Z,24.65
2023-02-22T06:04:35.104Z,24.77
2023-02-22T06:07:04.423Z,23.65
2023-02-22T06:09:33.893Z,25.68
2023-02-22T06:12:03.811Z,25.55
2023-02-22T06:14:33.109Z,26.25
2023-02-22T06:17:02.450Z,26.42
2023-02-22T06:19:31.695Z,29.65
2023-02-22T06:22:02.591Z,30.08
2023-02-22T06:24:31.854Z,31.12
2023-02-22T06:27:03.002Z,29.50
2023-02-22T06:29:32.929Z,30.20
2023-02-22T06:32:02.329Z,30.12
2023-02-22T06:34:31.748Z,29.80
2023-02-22T06:37:01.012Z,28.90
2023-02-22T06:39:30.316Z,29.10
2023-02-22T06:42:01.170Z,26.52
2023-02-22T06:44:30.410Z,26.45
2023-02-22T06:46:59.854Z,25.55
2023-02-22T06:49:29.575Z,25.68
2023-02-22T06:51:58.895Z,25.75
2023-02-22T06:54:28.303Z,24.50
2023-02-22T06:56:57.541Z,25.12
2023-02-22T06:59:28.131Z,25.23
2023-02-22T07:01:57.389Z,24.30
2023-02-22T07:04:27.002Z,25.23
2023-02-22T07:06:56.391Z,25.72
2023-02-22T07:09:25.987Z,25.68
2023-02-22T07:11:56.088Z,25.55
2023-02-22T07:14:25.719Z,27.82
2023-02-22T07:16:54.978Z,26.68
2023-02-22T07:19:24.900Z,27.73
2023-02-22T07:21:55.937Z,27.00
2023-02-22T07:24:26.102Z,29.72
2023-02-22T07:26:55.884Z,28.23
2023-02-22T07:29:25.453Z,29.72
2023-02-22T07:32:00.918Z,29.80
2023-02-22T07:34:31.133Z,30.43
2023-02-22T07:37:04.199Z,30.82
2023-02-22T07:39:36.574Z,29.90
2023-02-22T07:44:39.885Z,31.70
2023-02-22T07:47:11.470Z,30.40
2023-02-22T07:49:46.674Z,32.08
2023-02-22T07:52:17.749Z,31.12
2023-02-22T07:54:47.845Z,30.68
2023-02-22T07:57:17.247Z,30.95
2023-02-22T07:59:49.486Z,29.57
2023-02-22T08:02:19.236Z,28.42
2023-02-22T08:04:48.644Z,28.87
2023-02-22T08:07:17.996Z,27.90
2023-02-22T08:09:47.515Z,29.00
2023-02-22T08:12:17.135Z,28.15
2023-02-22T08:14:46.378Z,27.25
2023-02-22T08:17:16.067Z,27.80
2023-02-22T08:19:45.465Z,27.90
2023-02-22T08:22:14.704Z,27.20
2023-02-22T08:24:44.287Z,27.37
2023-02-22T08:27:13.872Z,26.82
2023-02-22T08:29:43.709Z,26.33
2023-02-22T08:32:13.266Z,26.27
2023-02-22T08:34:44.082Z,25.35
2023-02-22T08:37:14.062Z,26.17
2023-02-22T08:39:43.295Z,26.48
2023-02-22T08:42:13.009Z,28.05
2023-02-22T08:44:42.396Z,28.65
2023-02-22T08:47:11.864Z,27.22
2023-02-22T08:49:42.204Z,26.97
2023-02-22T08:52:11.634Z,25.92
2023-02-22T08:54:40.900Z,26.20
2023-02-22T08:57:10.471Z,25.25
2023-02-22T08:59:39.757Z,23.87
2023-02-22T09:02:17.029Z,22.67
2023-02-22T09:04:46.426Z,21.17
2023-02-22T09:07:16.785Z,21.57
2023-02-22T09:09:46.469Z,21.25
2023-02-22T09:12:15.973Z,20.77
2023-02-22T09:14:45.175Z,21.87
2023-02-22T09:17:14.695Z,21.45
2023-02-22T09:19:45.252Z,20.65
2023-02-22T09:22:14.753Z,19.75
2023-02-22T09:24:43.956Z,19.75
2023-02-22T09:27:13.562Z,20.20
2023-02-22T09:29:42.765Z,19.55
2023-02-22T09:32:12.375Z,19.35
2023-02-22T09:34:43.505Z,19.82
2023-02-22T09:37:13.980Z,19.12
2023-02-22T09:39:44.701Z,19.67
2023-02-22T09:42:38.874Z,19.52
2023-02-22T09:45:13.189Z,19.48
2023-02-22T09:47:46.630Z,19.82
2023-02-22T09:50:18.346Z,20.45
2023-02-22T09:52:59.474Z,19.60
2023-02-22T09:55:45.366Z,19.02
2023-02-22T09:58:31.679Z,19.10
2023-02-22T10:01:41.049Z,18.90
2023-02-22T10:04:18.376Z,18.73
2023-02-22T10:07:09.040Z,17.23
2023-02-22T10:09:42.783Z,18.32
2023-02-22T10:12:21.878Z,17.12
2023-02-22T10:15:19.908Z,17.07
2023-02-22T10:18:04.803Z,17.82
2023-02-22T10:20:52.499Z,17.12
2023-02-22T10:23:31.098Z,16.50
2023-02-22T10:26:22.949Z,17.20
2023-02-22T10:28:55.380Z,16.48
2023-02-22T10:31:33.562Z,17.37
2023-02-22T10:34:05.984Z,16.93
2023-02-22T10:36:37.147Z,17.05
2023-02-22T10:39:21.942Z,16.77
2023-02-22T10:41:54.282Z,17.32
2023-02-22T10:44:23.955Z,17.00
2023-02-22T10:46:53.760Z,17.52
2023-02-22T10:49:24.866Z,17.55
2023-02-22T10:52:00.939Z,17.27
2023-02-22T10:54:33.752Z,17.42
2023-02-22T10:57:04.029Z,17.25
2023-02-22T10:59:36.680Z,16.97
2023-02-22T11:02:18.419Z,18.02
2023-02-22T11:04:53.524Z,18.40
2023-02-22T11:07:27.281Z,17.12
2023-02-22T11:09:59.270Z,17.95
2023-02-22T11:12:32.344Z,18.05
2023-02-22T11:15:22.982Z,18.00
2023-02-22T11:17:55.303Z,17.95
2023-02-22T11:20:27.350Z,17.95
2023-02-22T11:23:00.881Z,18.37
2023-02-22T11:25:39.620Z,18.80
2023-02-22T11:28:25.675Z,17.65
2023-02-22T11:30:55.688Z,18.40
2023-02-22T11:33:26.402Z,17.65
2023-02-22T11:35:58.305Z,17.45
2023-02-22T11:38:32.787Z,17.02
2023-02-22T11:41:23.817Z,16.97
2023-02-22T11:43:54.378Z,17.62
2023-02-22T11:46:26.738Z,16.95
2023-02-22T11:48:58.703Z,16.90
2023-02-22T11:51:40.393Z,16.52
2023-02-22T11:54:41.570Z,16.80
2023-02-22T11:57:32.582Z,16.77
2023-02-22T12:00:15.339Z,16.02
2023-02-22T12:05:40.531Z,16.48
2023-02-22T12:08:28.336Z,17.55
2023-02-22T12:11:23.768Z,16.80
2023-02-22T12:14:05.735Z,16.97
2023-02-22T12:16:55.848Z,18.10
2023-02-22T12:19:39.361Z,17.75
2023-02-22T12:22:29.776Z,18.77
2023-02-22T12:25:09.674Z,18.07
2023-02-22T12:27:44.474Z,18.10
2023-02-22T12:30:23.850Z,17.90
2023-02-22T12:32:56.080Z,18.23
2023-02-22T12:35:32.636Z,18.17
2023-02-22T12:38:31.160Z,18.67
2023-02-22T12:41:14.260Z,18.62
2023-02-22T12:43:52.266Z,19.00
2023-02-22T12:46:34.016Z,19.32
2023-02-22T12:49:29.069Z,18.98
2023-02-22T12:52:34.373Z,19.57
2023-02-22T12:55:11.162Z,19.10
2023-02-22T12:57:49.296Z,19.70
2023-02-22T13:00:23.267Z,19.48
2023-02-22T13:03:06.267Z,20.50
2023-02-22T13:05:40.323Z,20.25
2023-02-22T13:08:24.852Z,19.67
2023-02-22T13:11:17.124Z,20.20
2023-02-22T13:13:51.393Z,20.48
2023-02-22T13:16:29.903Z,20.40
2023-02-22T13:19:18.861Z,20.75
2023-02-22T13:21:51.275Z,20.15
2023-02-22T13:24:41.418Z,21.25
2023-02-22T13:27:13.112Z,21.17
2023-02-22T13:29:45.561Z,20.48
2023-02-22T13:32:36.163Z,21.50
2023-02-22T13:35:27.039Z,19.70
2023-02-22T13:38:08.515Z,20.02
2023-02-22T13:41:06.232Z,21.15
2023-02-22T13:43:38.940Z,19.92
2023-02-22T13:46:32.769Z,20.68
2023-02-22T13:49:23.587Z,20.62
2023-02-22T13:52:04.701Z,20.75
2023-02-22T13:54:51.062Z,19.92
2023-02-22T13:57:40.169Z,20.90
2023-02-22T14:00:19.024Z,21.68
2023-02-22T14:03:09.111Z,21.00
2023-02-22T14:05:48.878Z,21.70
2023-02-22T14:08:26.104Z,21.90
2023-02-22T14:11:06.824Z,21.87
2023-02-22T14:13:59.370Z,22.15
2023-02-22T14:16:30.658Z,22.30
2023-02-22T14:19:13.473Z,23.10
2023-02-22T14:24:17.444Z,22.40
2023-02-22T14:27:04.749Z,22.67
2023-02-22T14:29:34.020Z,24.72
2023-02-22T14:32:11.291Z,23.12
2023-02-22T14:34:42.977Z,24.63
2023-02-22T14:37:15.216Z,24.75
2023-02-22T14:39:51.413Z,24.00
2023-02-22T14:42:33.081Z,24.07
2023-02-22T14:45:14.703Z,22.85
2023-02-22T14:48:04.091Z,23.98
2023-02-22T14:50:46.071Z,23.85
2023-02-22T14:53:41.350Z,24.00
2023-02-22T14:56:34.011Z,24.27
2023-02-22T14:59:09.412Z,24.80
2023-02-22T15:01:55.704Z,25.15
2023-02-22T15:04:26.435Z,24.98
2023-02-22T15:06:57.453Z,26.02
2023-02-22T15:09:34.763Z,26.48
2023-02-22T15:12:08.763Z,27.40
2023-02-22T15:14:41.245Z,28.50
2023-02-22T15:17:22.378Z,29.98
2023-02-22T15:19:53.129Z,30.30
2023-02-22T15:22:31.325Z,33.30
2023-02-22T15:25:05.708Z,31.20
2023-02-22T15:27:37.504Z,32.23
2023-02-22T15:30:10.018Z,34.18
2023-02-22T15:32:57.080Z,33.92
2023-02-22T15:35:28.162Z,36.73
2023-02-22T15:38:15.779Z,37.53
2023-02-22T15:40:45.613Z,38.75
2023-02-22T15:43:27.603Z,40.45
2023-02-22T15:45:57.776Z,39.95
2023-02-22T15:48:28.462Z,39.25
2023-02-22T15:51:15.212Z,41.48
2023-02-22T15:53:46.867Z,41.53
2023-02-22T15:56:31.272Z,43.38
2023-02-22T15:59:06.843Z,43.95
2023-02-22T16:01:42.808Z,45.67
2023-02-22T16:04:24.554Z,50.58
2023-02-22T16:06:54.992Z,50.85
2023-02-22T16:09:26.108Z,48.40
2023-02-22T16:12:23.214Z,47.00
2023-02-22T16:14:53.162Z,69.10
2023-02-22T16:17:37.389Z,54.73
2023-02-22T16:20:19.246Z,50.65
2023-02-22T16:22:49.989Z,51.73
2023-02-22T16:25:22.574Z,49.10
2023-02-22T16:30:37.778Z,51.08
2023-02-22T16:33:16.625Z,54.88
2023-02-22T16:35:47.849Z,53.63
2023-02-22T16:38:17.260Z,67.65
2023-02-22T16:40:55.361Z,58.00
2023-02-22T16:43:27.616Z,58.70
2023-02-22T16:45:57.319Z,62.70
2023-02-22T16:48:29.902Z,59.95
2023-02-22T16:53:33.084Z,58.30
2023-02-22T16:56:05.377Z,60.55
2023-02-22T16:58:37.823Z,62.08
2023-02-22T17:01:07.371Z,62.75
2023-02-22T17:03:36.845Z,68.90
2023-02-22T17:06:06.803Z,64.85
2023-02-22T17:08:36.060Z,67.05
2023-02-22T17:11:05.919Z,68.72
2023-02-22T17:13:35.658Z,65.05
2023-02-22T17:16:05.713Z,65.05
2023-02-22T17:18:35.735Z,63.68
2023-02-22T17:21:06.024Z,62.70
2023-02-22T17:23:35.259Z,67.58
2023-02-22T17:26:05.630Z,62.40
2023-02-22T17:28:34.872Z,62.88
2023-02-22T17:31:04.414Z,65.32
2023-02-22T17:33:36.654Z,61.80
2023-02-22T17:36:07.126Z,64.62
2023-02-22T17:38:36.685Z,67.03
2023-02-22T17:41:07.437Z,66.02
2023-02-22T17:43:36.965Z,65.25
2023-02-22T17:46:09.625Z,65.75
2023-02-22T17:48:39.638Z,64.87
2023-02-22T17:51:10.767Z,65.03
2023-02-22T17:53:40.732Z,65.97
2023-02-22T17:56:17.474Z,66.47
2023-02-22T17:58:53.221Z,66.90
2023-02-22T18:01:28.244Z,67.15
2023-02-22T18:04:00.807Z,66.82
2023-02-22T18:09:00.794Z,66.50
2023-02-22T18:11:32.242Z,72.22
2023-02-22T18:14:03.921Z,71.25
2023-02-22T18:16:33.539Z,65.33
2023-02-22T18:19:03.194Z,62.67
2023-02-22T18:21:32.666Z,65.15
2023-02-22T18:24:01.954Z,63.63
2023-02-22T18:26:31.871Z,63.52
2023-02-22T18:29:01.138Z,76.97
2023-02-22T18:31:30.829Z,69.05
2023-02-22T18:34:00.133Z,67.95
2023-02-22T18:36:29.700Z,65.62
2023-02-22T18:38:58.937Z,63.55
2023-02-22T18:41:28.660Z,61.70
2023-02-22T18:43:59.806Z,60.52
2023-02-22T18:46:30.354Z,58.28
2023-02-22T18:49:00.464Z,61.25
2023-02-22T18:51:30.092Z,63.35
2023-02-22T18:54:02.550Z,67.37
2023-02-22T18:56:34.205Z,62.25
2023-02-22T18:59:04.878Z,62.40
2023-02-22T19:01:36.129Z,65.20
2023-02-22T19:04:10.563Z,66.17
2023-02-22T19:06:40.551Z,62.45
2023-02-22T19:09:10.140Z,63.33
2023-02-22T19:11:41.236Z,68.50
2023-02-22T19:14:11.420Z,62.73
2023-02-22T19:16:41.302Z,62.78
2023-02-22T19:19:11.180Z,61.85
2023-02-22T19:21:40.708Z,62.27
2023-02-22T19:24:10.412Z,61.40
2023-02-22T19:26:39.851Z,62.03
2023-02-22T19:29:09.642Z,61.40
2023-02-22T19:31:42.040Z,61.08
2023-02-22T19:34:14.580Z,61.50
2023-02-22T19:36:47.077Z,58.20
2023-02-22T19:41:48.950Z,54.20
2023-02-22T19:44:18.459Z,52.65
2023-02-22T19:46:48.058Z,53.45
2023-02-22T19:49:18.211Z,53.70
2023-02-22T19:51:47.795Z,85.12
2023-02-22T19:54:20.156Z,56.10
2023-02-22T19:56:51.675Z,59.85
2023-02-22T19:59:23.253Z,52.27
2023-02-22T20:01:58.684Z,55.53
2023-02-22T20:04:34.484Z,52.23
2023-02-22T20:07:04.230Z,50.83
2023-02-22T20:09:35.813Z,51.18
2023-02-22T20:12:06.267Z,50.48
2023-02-22T20:14:36.450Z,51.18
2023-02-22T20:17:07.703Z,51.33
2023-02-22T20:19:38.746Z,50.05
2023-02-22T20:22:11.041Z,56.23
2023-02-22T20:24:41.810Z,51.68
2023-02-22T20:27:13.066Z,53.33
2023-02-22T20:29:42.350Z,58.73
2023-02-22T20:32:15.679Z,58.87
2023-02-22T20:34:48.620Z,53.28
2023-02-22T20:37:18.352Z,60.52
2023-02-22T20:39:48.009Z,56.23
2023-02-22T20:42:17.755Z,52.60
2023-02-22T20:44:47.359Z,51.95
2023-02-22T20:47:16.984Z,54.50
2023-02-22T20:49:46.821Z,51.68
2023-02-22T20:52:16.558Z,53.87
2023-02-22T20:54:45.955Z,50.90
2023-02-22T20:57:15.374Z,53.90
2023-02-22T20:59:46.208Z,50.50
2023-02-22T21:02:15.560Z,51.68
2023-02-22T21:04:45.193Z,50.20
2023-02-22T21:07:14.847Z,53.20
2023-02-22T21:09:44.672Z,51.77
2023-02-22T21:12:13.936Z,67.27
2023-02-22T21:14:45.200Z,53.35
2023-02-22T21:17:14.771Z,54.00
2023-02-22T21:19:44.665Z,57.08
2023-02-22T21:22:14.529Z,64.37
2023-02-22T21:24:44.255Z,57.48
2023-02-22T21:27:13.886Z,52.20
2023-02-22T21:29:43.547Z,54.13
2023-02-22T21:32:13.914Z,52.20
2023-02-22T21:34:43.325Z,55.23
2023-02-22T21:37:14.653Z,50.95
2023-02-22T21:39:45.584Z,53.95
2023-02-22T21:42:14.906Z,51.25
2023-02-22T21:44:44.216Z,50.23
2023-02-22T21:47:13.734Z,52.78
2023-02-22T21:49:43.844Z,52.17
2023-02-22T21:52:13.284Z,49.93
2023-02-22T21:54:42.711Z,55.35
2023-02-22T21:57:12.319Z,52.65
2023-02-22T21:59:42.095Z,51.37
2023-02-22T22:02:12.010Z,51.73
2023-02-22T22:04:42.996Z,49.95
2023-02-22T22:07:16.942Z,50.50
2023-02-22T22:10:02.504Z,53.00
2023-02-22T22:12:42.240Z,51.65
2023-02-22T22:15:17.161Z,55.58
2023-02-22T22:20:22.539Z,50.43
2023-02-22T22:22:58.802Z,51.85
2023-02-22T22:25:35.962Z,49.80
2023-02-22T22:28:12.438Z,51.02
2023-02-22T22:30:47.999Z,51.88
2023-02-22T22:33:20.560Z,50.55
2023-02-22T22:35:51.348Z,52.25
2023-02-22T22:38:21.997Z,51.15
2023-02-22T22:40:53.005Z,51.50
2023-02-22T22:43:22.245Z,50.23
2023-02-22T22:45:51.499Z,50.48
2023-02-22T22:48:22.626Z,49.73
2023-02-22T22:51:06.839Z,51.13
2023-02-22T22:53:37.916Z,50.03
2023-02-22T22:56:19.539Z,49.60
2023-02-22T22:58:50.570Z,49.98
2023-02-22T23:01:24.252Z,48.48
2023-02-22T23:03:56.696Z,50.40
2023-02-22T23:06:31.040Z,49.85
2023-02-22T23:09:04.372Z,50.45
2023-02-22T23:11:33.791Z,48.80
2023-02-22T23:14:04.782Z,51.15
2023-02-22T23:16:34.062Z,51.53
2023-02-22T23:19:03.328Z,48.38
2023-02-22T23:21:32.843Z,51.23
2023-02-22T23:24:03.010Z,48.20
2023-02-22T23:26:32.758Z,49.50
2023-02-22T23:29:02.801Z,49.88
2023-02-22T23:31:32.275Z,49.88
2023-02-22T23:34:05.899Z,48.98
2023-02-22T23:36:35.170Z,50.28
2023-02-22T23:39:06.906Z,50.55
2023-02-22T23:41:36.460Z,47.13
2023-02-22T23:44:08.055Z,48.70
2023-02-22T23:46:40.018Z,50.17
2023-02-22T23:49:09.977Z,47.38
2023-02-22T23:51:42.116Z,49.75
2023-02-22T23:54:13.749Z,48.25
2023-02-22T23:56:45.536Z,50.30
2023-02-22T23:59:15.611Z,47.67
